createdAt,value
2018-09-23T00:01:13.624Z,11.68
2018-09-23T00:03:41.782Z,11.93
2018-09-23T00:06:09.992Z,12.53
2018-09-23T00:08:38.211Z,11.28
2018-09-23T00:11:06.346Z,12.15
2018-09-23T00:13:34.540Z,12.33
2018-09-23T00:16:02.773Z,13.10
2018-09-23T00:18:30.940Z,12.45
2018-09-23T00:20:59.140Z,13.25
2018-09-23T00:23:27.342Z,13.35
2018-09-23T00:25:55.500Z,12.00
2018-09-23T00:28:23.697Z,12.37
2018-09-23T00:30:52.138Z,11.35
2018-09-23T00:33:21.405Z,13.45
2018-09-23T00:35:49.669Z,12.35
2018-09-23T00:38:17.897Z,12.40
2018-09-23T00:40:46.084Z,13.62
2018-09-23T00:43:14.306Z,15.20
2018-09-23T00:45:42.476Z,12.35
2018-09-23T00:48:10.752Z,12.85
2018-09-23T00:50:38.896Z,14.85
2018-09-23T00:53:07.134Z,14.60
2018-09-23T00:55:35.323Z,16.75
2018-09-23T00:58:03.549Z,17.75
2018-09-23T01:00:31.752Z,15.35
2018-09-23T01:02:59.964Z,18.45
2018-09-23T01:05:28.116Z,17.92
2018-09-23T01:07:56.365Z,18.42
2018-09-23T01:10:24.639Z,18.80
2018-09-23T01:12:52.889Z,17.92
2018-09-23T01:15:21.082Z,17.82
2018-09-23T01:17:49.264Z,19.15
2018-09-23T01:20:17.512Z,21.00
2018-09-23T01:22:45.790Z,19.75
2018-09-23T01:25:13.993Z,20.43
2018-09-23T01:27:42.261Z,20.92
2018-09-23T01:30:10.488Z,22.80
2018-09-23T01:32:38.662Z,21.20
2018-09-23T01:35:06.905Z,22.52
2018-09-23T01:37:35.184Z,23.38
2018-09-23T01:40:03.436Z,24.18
2018-09-23T01:42:31.649Z,24.82
2018-09-23T01:45:00.131Z,25.97
2018-09-23T01:47:28.374Z,24.55
2018-09-23T01:49:56.672Z,24.50
2018-09-23T01:52:24.960Z,25.62
2018-09-23T01:54:53.128Z,25.27
2018-09-23T01:57:21.312Z,25.15
2018-09-23T01:59:49.528Z,26.90
2018-09-23T02:02:17.729Z,25.82
2018-09-23T02:04:45.930Z,29.05
2018-09-23T02:07:14.101Z,26.82
2018-09-23T02:09:42.255Z,27.82
2018-09-23T02:12:10.449Z,28.55
2018-09-23T02:14:38.680Z,30.80
2018-09-23T02:17:06.817Z,27.00
2018-09-23T02:19:35.022Z,31.20
2018-09-23T02:22:03.211Z,35.80
2018-09-23T02:24:31.372Z,32.40
2018-09-23T02:26:59.559Z,33.02
2018-09-23T02:29:27.768Z,33.00
2018-09-23T02:31:56.053Z,32.28
2018-09-23T02:34:24.225Z,33.30
2018-09-23T02:36:52.434Z,34.00
2018-09-23T02:39:20.608Z,33.33
2018-09-23T02:41:48.764Z,32.30
2018-09-23T02:44:16.911Z,31.45
2018-09-23T02:46:45.073Z,31.48
2018-09-23T02:49:13.237Z,29.75
2018-09-23T02:51:41.425Z,31.87
2018-09-23T02:54:09.597Z,31.23
2018-09-23T02:56:37.771Z,30.80
2018-09-23T02:59:05.977Z,34.18
2018-09-23T03:01:34.168Z,32.17
2018-09-23T03:04:02.333Z,33.80
2018-09-23T03:06:30.558Z,33.28
2018-09-23T03:08:58.736Z,33.42
2018-09-23T03:11:26.961Z,32.98
2018-09-23T03:13:55.144Z,30.00
2018-09-23T03:16:23.457Z,31.10
2018-09-23T03:18:51.655Z,30.12
2018-09-23T03:21:19.900Z,29.42
2018-09-23T03:23:48.124Z,30.90
2018-09-23T03:26:16.337Z,31.35
2018-09-23T03:28:44.532Z,32.20
2018-09-23T03:31:12.712Z,30.72
2018-09-23T03:33:40.875Z,30.50
2018-09-23T03:36:09.077Z,29.85
2018-09-23T03:38:37.253Z,28.70
2018-09-23T03:41:05.436Z,31.05
2018-09-23T03:43:33.666Z,29.67
2018-09-23T03:46:01.917Z,30.00
2018-09-23T03:48:30.096Z,30.62
2018-09-23T03:50:58.252Z,31.20
2018-09-23T03:53:26.444Z,30.90
2018-09-23T03:55:54.663Z,32.17
2018-09-23T03:58:22.811Z,32.98
2018-09-23T04:00:51.018Z,31.35
2018-09-23T04:03:19.277Z,30.92
2018-09-23T04:05:47.441Z,31.55
2018-09-23T04:08:15.708Z,29.57
2018-09-23T04:10:44.017Z,29.30
2018-09-23T04:13:12.248Z,31.10
2018-09-23T04:15:40.388Z,31.07
2018-09-23T04:18:08.614Z,27.87
2018-09-23T04:20:36.794Z,29.27
2018-09-23T04:23:04.993Z,26.85
2018-09-23T04:25:33.250Z,27.52
2018-09-23T04:28:01.576Z,28.15
2018-09-23T04:30:29.749Z,27.55
2018-09-23T04:32:57.941Z,28.20
2018-09-23T04:35:26.217Z,25.45
2018-09-23T04:37:54.409Z,27.85
2018-09-23T04:40:22.693Z,28.45
2018-09-23T04:42:50.871Z,26.75
2018-09-23T04:45:19.318Z,26.17
2018-09-23T04:47:47.488Z,27.70
2018-09-23T04:50:15.770Z,28.32
2018-09-23T04:52:43.964Z,28.67
2018-09-23T04:55:12.191Z,28.02
2018-09-23T04:57:40.288Z,27.85
2018-09-23T05:00:08.528Z,28.95
2018-09-23T05:02:36.716Z,29.27
2018-09-23T05:05:04.970Z,27.70
2018-09-23T05:07:33.122Z,30.82
2018-09-23T05:10:01.342Z,29.60
2018-09-23T05:12:29.553Z,29.98
2018-09-23T05:14:58.061Z,30.72
2018-09-23T05:17:26.282Z,28.90
2018-09-23T05:19:54.512Z,30.40
2018-09-23T05:22:22.689Z,30.48
2018-09-23T05:24:50.885Z,28.50
2018-09-23T05:27:19.092Z,29.05
2018-09-23T05:29:47.244Z,28.70
2018-09-23T05:32:15.424Z,30.12
2018-09-23T05:34:43.620Z,30.90
2018-09-23T05:37:11.782Z,28.02
2018-09-23T05:39:39.968Z,28.60
2018-09-23T05:42:08.150Z,30.45
2018-09-23T05:44:36.380Z,30.60
2018-09-23T05:47:04.594Z,29.48
2018-09-23T05:49:32.772Z,27.90
2018-09-23T05:52:01.021Z,28.90
2018-09-23T05:54:29.226Z,29.40
2018-09-23T05:56:57.375Z,27.40
2018-09-23T05:59:25.728Z,29.18
2018-09-23T06:01:54.174Z,30.05
2018-09-23T06:04:22.305Z,28.25
2018-09-23T06:06:50.486Z,29.55
2018-09-23T06:09:18.633Z,28.55
2018-09-23T06:11:46.950Z,27.93
2018-09-23T06:14:15.126Z,30.40
2018-09-23T06:16:43.384Z,28.55
2018-09-23T06:19:11.735Z,28.20
2018-09-23T06:21:39.968Z,27.15
2018-09-23T06:24:08.176Z,27.70
2018-09-23T06:26:36.393Z,29.20
2018-09-23T06:29:04.691Z,29.00
2018-09-23T06:31:32.928Z,29.65
2018-09-23T06:34:01.109Z,27.58
2018-09-23T06:36:29.219Z,28.32
2018-09-23T06:38:57.585Z,27.05
2018-09-23T06:41:25.833Z,29.02
2018-09-23T06:43:54.021Z,26.57
2018-09-23T06:46:22.193Z,26.42
2018-09-23T06:48:50.389Z,27.67
2018-09-23T06:51:18.563Z,29.82
2018-09-23T06:53:46.853Z,28.77
2018-09-23T06:56:15.057Z,29.50
2018-09-23T06:58:44.106Z,27.05
2018-09-23T07:01:12.365Z,27.87
2018-09-23T07:03:40.675Z,26.23
2018-09-23T07:06:09.642Z,28.95
2018-09-23T07:08:39.624Z,27.65
2018-09-23T07:11:08.510Z,29.42
2018-09-23T07:13:36.947Z,26.10
2018-09-23T07:16:05.211Z,26.68
2018-09-23T07:18:40.130Z,28.70
2018-09-23T07:21:08.814Z,26.85
2018-09-23T07:23:38.120Z,25.55
2018-09-23T07:26:21.439Z,26.60
2018-09-23T07:31:31.420Z,25.95
2018-09-23T07:34:01.801Z,27.70
2018-09-23T07:36:46.664Z,25.75
2018-09-23T07:39:19.271Z,23.18
2018-09-23T07:41:47.695Z,24.72
2018-09-23T07:44:15.949Z,25.82
2018-09-23T07:46:44.385Z,23.95
2018-09-23T07:49:17.725Z,23.55
2018-09-23T07:51:46.105Z,24.30
2018-09-23T07:54:14.570Z,22.30
2018-09-23T07:56:42.861Z,23.92
2018-09-23T07:59:11.041Z,21.20
2018-09-23T08:01:39.260Z,23.25
2018-09-23T08:04:07.511Z,21.77
2018-09-23T08:06:35.777Z,23.25
2018-09-23T08:09:07.669Z,23.40
2018-09-23T08:11:37.028Z,22.50
2018-09-23T08:14:05.712Z,23.73
2018-09-23T08:16:33.762Z,22.58
2018-09-23T08:19:02.234Z,22.15
2018-09-23T08:21:30.505Z,24.20
2018-09-23T08:23:58.821Z,23.30
2018-09-23T08:26:27.230Z,22.98
2018-09-23T08:28:55.465Z,21.80
2018-09-23T08:31:23.733Z,21.37
2018-09-23T08:33:51.974Z,21.68
2018-09-23T08:36:20.196Z,22.77
2018-09-23T08:38:48.900Z,21.97
2018-09-23T08:41:17.053Z,20.85
2018-09-23T08:43:45.283Z,19.48
2018-09-23T08:46:13.679Z,22.77
2018-09-23T08:48:41.871Z,20.05
2018-09-23T08:51:10.041Z,22.65
2018-09-23T08:53:38.199Z,19.17
2018-09-23T08:56:06.409Z,19.92
2018-09-23T08:58:34.887Z,23.85
2018-09-23T09:01:03.046Z,21.93
2018-09-23T09:03:31.256Z,20.85
2018-09-23T09:05:59.462Z,20.95
2018-09-23T09:08:27.620Z,19.40
2018-09-23T09:10:55.807Z,20.90
2018-09-23T09:13:23.990Z,20.72
2018-09-23T09:15:52.200Z,19.27
2018-09-23T09:18:20.944Z,18.57
2018-09-23T09:20:49.068Z,17.82
2018-09-23T09:23:17.335Z,20.15
2018-09-23T09:25:45.545Z,21.37
2018-09-23T09:28:13.782Z,18.82
2018-09-23T09:30:42.120Z,19.10
2018-09-23T09:33:10.364Z,17.48
2018-09-23T09:35:38.602Z,15.78
2018-09-23T09:38:06.853Z,16.65
2018-09-23T09:40:36.147Z,17.30
2018-09-23T09:43:04.399Z,15.55
2018-09-23T09:45:32.557Z,16.50
2018-09-23T09:48:00.745Z,15.80
2018-09-23T09:50:28.978Z,18.35
2018-09-23T09:52:57.249Z,16.77
2018-09-23T09:55:25.440Z,18.20
2018-09-23T09:57:53.643Z,18.23
2018-09-23T10:00:27.257Z,15.53
2018-09-23T10:02:55.476Z,15.78
2018-09-23T10:05:23.681Z,16.37
2018-09-23T10:07:52.056Z,17.07
2018-09-23T10:10:20.589Z,16.12
2018-09-23T10:12:48.780Z,16.75
2018-09-23T10:15:17.169Z,14.20
2018-09-23T10:17:45.518Z,15.58
2018-09-23T10:20:13.798Z,15.25
2018-09-23T10:22:42.139Z,15.43
2018-09-23T10:25:10.274Z,16.45
2018-09-23T10:27:38.444Z,15.70
2018-09-23T10:30:07.639Z,13.83
2018-09-23T10:32:35.860Z,13.50
2018-09-23T10:35:04.122Z,13.22
2018-09-23T10:37:32.352Z,12.43
2018-09-23T10:40:00.600Z,13.00
2018-09-23T10:42:39.944Z,12.30
2018-09-23T10:45:08.188Z,12.47
2018-09-23T10:47:36.381Z,12.37
2018-09-23T10:50:04.691Z,12.95
2018-09-23T10:52:32.965Z,12.53
2018-09-23T10:55:01.155Z,12.50
2018-09-23T10:57:29.341Z,13.20
2018-09-23T10:59:57.524Z,12.63
2018-09-23T11:02:25.736Z,13.80
2018-09-23T11:04:53.984Z,13.05
2018-09-23T11:07:22.236Z,10.88
2018-09-23T11:09:50.630Z,11.68
2018-09-23T11:12:18.768Z,10.00
2018-09-23T11:14:46.949Z,10.72
2018-09-23T11:17:15.152Z,10.45
2018-09-23T11:19:43.372Z,10.50
2018-09-23T11:22:11.645Z,10.18
2018-09-23T11:24:39.985Z,10.05
2018-09-23T11:27:08.232Z,10.08
2018-09-23T11:29:36.420Z,10.03
2018-09-23T11:32:04.600Z,10.45
2018-09-23T11:34:32.845Z,11.57
2018-09-23T11:37:01.041Z,10.10
2018-09-23T11:39:29.289Z,11.63
2018-09-23T11:41:57.627Z,11.85
2018-09-23T11:44:25.817Z,11.65
2018-09-23T11:46:54.797Z,10.68
2018-09-23T11:49:23.106Z,9.90
2018-09-23T11:51:51.325Z,11.65
2018-09-23T11:54:19.593Z,10.82
2018-09-23T11:56:47.920Z,9.35
2018-09-23T11:59:16.173Z,9.80
2018-09-23T12:01:45.694Z,8.58
2018-09-23T12:04:14.892Z,10.78
2018-09-23T12:06:43.077Z,9.90
2018-09-23T12:09:12.601Z,10.53
2018-09-23T12:11:40.897Z,11.78
2018-09-23T12:14:09.461Z,10.88
2018-09-23T12:16:37.730Z,10.30
2018-09-23T12:19:05.946Z,10.63
2018-09-23T12:21:34.160Z,11.03
2018-09-23T12:24:02.369Z,9.40
2018-09-23T12:26:30.669Z,10.38
2018-09-23T12:28:58.887Z,9.43
2018-09-23T12:31:27.109Z,9.93
2018-09-23T12:33:55.387Z,10.03
2018-09-23T12:36:23.641Z,10.08
2018-09-23T12:38:51.899Z,9.45
2018-09-23T12:41:20.098Z,8.93
2018-09-23T12:43:48.300Z,10.32
2018-09-23T12:46:16.537Z,9.13
2018-09-23T12:48:44.886Z,8.58
2018-09-23T12:51:13.089Z,8.80
2018-09-23T12:53:41.319Z,7.45
2018-09-23T12:56:09.558Z,7.87
2018-09-23T12:58:37.728Z,6.67
2018-09-23T13:01:05.957Z,7.62
2018-09-23T13:03:34.145Z,7.15
2018-09-23T13:06:02.388Z,7.47
2018-09-23T13:08:30.600Z,6.85
2018-09-23T13:10:58.993Z,7.45
2018-09-23T13:13:27.244Z,5.67
2018-09-23T13:15:55.449Z,4.37
2018-09-23T13:18:23.734Z,4.60
2018-09-23T13:20:51.902Z,4.92
2018-09-23T13:23:20.153Z,4.45
2018-09-23T13:25:48.348Z,3.85
2018-09-23T13:28:16.525Z,4.58
2018-09-23T13:30:44.727Z,4.80
2018-09-23T13:33:12.878Z,4.92
2018-09-23T13:35:41.123Z,4.50
2018-09-23T13:38:09.404Z,3.85
2018-09-23T13:40:37.615Z,4.25
2018-09-23T13:43:05.905Z,4.05
2018-09-23T13:45:34.041Z,4.35
2018-09-23T13:48:02.193Z,4.15
2018-09-23T13:50:30.388Z,4.00
2018-09-23T13:52:58.629Z,4.00
2018-09-23T13:55:26.936Z,4.00
2018-09-23T13:57:55.170Z,4.95
2018-09-23T14:00:23.396Z,4.80
2018-09-23T14:02:51.567Z,4.65
2018-09-23T14:05:19.884Z,4.53
2018-09-23T14:07:48.097Z,4.78
2018-09-23T14:10:16.298Z,5.40
2018-09-23T14:12:44.612Z,4.28
2018-09-23T14:15:12.811Z,5.70
2018-09-23T14:17:41.043Z,4.95
2018-09-23T14:20:09.291Z,4.40
2018-09-23T14:22:37.524Z,4.35
2018-09-23T14:25:05.796Z,4.67
2018-09-23T14:27:34.011Z,4.05
2018-09-23T14:30:02.219Z,3.70
2018-09-23T14:32:30.452Z,3.80
2018-09-23T14:34:58.657Z,4.00
2018-09-23T14:37:26.856Z,3.80
2018-09-23T14:39:55.065Z,4.15
2018-09-23T14:42:23.314Z,4.33
2018-09-23T14:44:51.603Z,3.50
2018-09-23T14:47:19.896Z,4.20
2018-09-23T14:49:48.074Z,4.25
2018-09-23T14:52:16.248Z,3.47
2018-09-23T14:54:44.577Z,4.37
2018-09-23T14:57:12.618Z,3.02
2018-09-23T14:59:40.795Z,2.55
2018-09-23T15:02:09.056Z,2.12
2018-09-23T15:04:37.294Z,2.90
2018-09-23T15:07:05.548Z,3.20
2018-09-23T15:09:33.799Z,3.58
2018-09-23T15:12:02.008Z,3.00
2018-09-23T15:14:30.237Z,3.47
2018-09-23T15:16:58.509Z,3.62
2018-09-23T15:19:26.773Z,4.42
2018-09-23T15:21:55.025Z,3.70
2018-09-23T15:24:23.281Z,4.80
2018-09-23T15:26:51.416Z,4.22
2018-09-23T15:29:19.615Z,5.85
2018-09-23T15:31:47.764Z,4.80
2018-09-23T15:34:15.985Z,4.95
2018-09-23T15:36:44.182Z,5.50
2018-09-23T15:39:12.340Z,5.72
2018-09-23T15:41:40.555Z,5.90
2018-09-23T15:44:08.751Z,6.58
2018-09-23T15:46:37.489Z,7.08
2018-09-23T15:49:06.207Z,6.25
2018-09-23T15:51:34.403Z,6.97
2018-09-23T15:54:02.549Z,6.05
2018-09-23T15:56:30.718Z,6.70
2018-09-23T15:58:58.997Z,6.50
2018-09-23T16:01:27.256Z,6.37
2018-09-23T16:03:55.508Z,5.80
2018-09-23T16:06:23.933Z,5.28
2018-09-23T16:08:52.353Z,5.65
2018-09-23T16:11:21.162Z,5.03
2018-09-23T16:13:49.386Z,5.95
2018-09-23T16:16:17.684Z,5.12
2018-09-23T16:18:46.238Z,4.67
2018-09-23T16:21:14.514Z,4.90
2018-09-23T16:23:42.844Z,4.35
2018-09-23T16:26:11.153Z,4.70
2018-09-23T16:28:39.613Z,4.72
2018-09-23T16:31:07.865Z,5.15
2018-09-23T16:33:36.953Z,4.30
2018-09-23T16:36:05.188Z,5.70
2018-09-23T16:38:34.175Z,4.92
2018-09-23T16:41:02.567Z,6.17
2018-09-23T16:43:30.732Z,5.47
2018-09-23T16:45:59.015Z,5.08
2018-09-23T16:48:27.313Z,5.30
2018-09-23T16:50:55.587Z,4.00
2018-09-23T16:53:23.917Z,3.90
2018-09-23T16:55:52.153Z,3.85
2018-09-23T16:58:20.488Z,3.35
2018-09-23T17:00:49.106Z,3.45
2018-09-23T17:03:17.344Z,3.87
2018-09-23T17:05:45.610Z,3.75
2018-09-23T17:08:14.285Z,3.85
2018-09-23T17:10:42.648Z,3.17
2018-09-23T17:13:11.022Z,4.10
2018-09-23T17:15:39.613Z,4.03
2018-09-23T17:18:08.118Z,4.80
2018-09-23T17:20:36.499Z,4.80
2018-09-23T17:23:04.877Z,5.00
2018-09-23T17:25:33.256Z,5.45
2018-09-23T17:28:01.510Z,4.90
2018-09-23T17:30:29.784Z,3.77
2018-09-23T17:32:58.073Z,5.15
2018-09-23T17:35:26.279Z,5.58
2018-09-23T17:37:54.696Z,6.30
2018-09-23T17:40:23.069Z,5.08
2018-09-23T17:42:51.373Z,6.08
2018-09-23T17:45:19.669Z,6.60
2018-09-23T17:47:48.095Z,4.72
2018-09-23T17:50:16.316Z,5.58
2018-09-23T17:52:44.724Z,4.53
2018-09-23T17:55:13.098Z,5.87
2018-09-23T17:57:41.539Z,4.05
2018-09-23T18:00:09.837Z,4.58
2018-09-23T18:02:38.149Z,4.08
2018-09-23T18:05:06.513Z,4.20
2018-09-23T18:07:35.180Z,4.40
2018-09-23T18:10:03.493Z,4.45
2018-09-23T18:12:31.749Z,3.60
2018-09-23T18:15:00.144Z,4.20
2018-09-23T18:17:28.496Z,3.65
2018-09-23T18:19:56.780Z,5.20
2018-09-23T18:22:25.024Z,3.55
2018-09-23T18:24:53.432Z,4.05
2018-09-23T18:27:21.632Z,4.05
2018-09-23T18:29:49.920Z,4.78
2018-09-23T18:32:18.132Z,4.28
2018-09-23T18:34:46.397Z,4.50
2018-09-23T18:37:14.651Z,3.83
2018-09-23T18:39:42.835Z,4.40
2018-09-23T18:42:11.140Z,3.60
2018-09-23T18:44:39.693Z,3.42
2018-09-23T18:47:07.896Z,3.72
2018-09-23T18:49:36.142Z,3.72
2018-09-23T18:52:04.327Z,3.87
2018-09-23T18:54:37.845Z,2.35
2018-09-23T18:57:06.140Z,3.87
2018-09-23T18:59:34.448Z,2.95
2018-09-23T19:02:02.656Z,2.45
2018-09-23T19:04:30.835Z,2.55
2018-09-23T19:06:59.059Z,2.67
2018-09-23T19:09:27.296Z,3.30
2018-09-23T19:11:55.551Z,2.58
2018-09-23T19:14:23.748Z,2.98
2018-09-23T19:16:51.984Z,2.35
2018-09-23T19:19:24.396Z,2.83
2018-09-23T19:21:52.617Z,3.17
2018-09-23T19:24:20.842Z,2.50
2018-09-23T19:26:49.223Z,1.90
2018-09-23T19:29:17.394Z,2.17
2018-09-23T19:31:45.721Z,2.67
2018-09-23T19:34:13.865Z,1.92
2018-09-23T19:36:42.067Z,2.40
2018-09-23T19:39:10.245Z,2.22
2018-09-23T19:41:38.431Z,2.25
2018-09-23T19:44:06.706Z,2.40
2018-09-23T19:46:34.990Z,2.50
2018-09-23T19:49:03.161Z,2.37
2018-09-23T19:51:31.417Z,2.45
2018-09-23T19:53:59.596Z,2.55
2018-09-23T19:56:27.807Z,3.05
2018-09-23T19:58:56.069Z,2.83
2018-09-23T20:01:24.275Z,2.70
2018-09-23T20:03:52.437Z,2.60
2018-09-23T20:06:20.658Z,2.60
2018-09-23T20:08:48.929Z,2.35
2018-09-23T20:11:17.087Z,1.85
2018-09-23T20:13:45.260Z,1.45
2018-09-23T20:16:13.510Z,1.90
2018-09-23T20:18:41.794Z,1.70
2018-09-23T20:21:10.010Z,1.27
2018-09-23T20:23:38.386Z,1.95
2018-09-23T20:26:06.708Z,2.10
2018-09-23T20:28:35.214Z,1.82
2018-09-23T20:31:03.425Z,2.05
2018-09-23T20:33:31.645Z,2.22
2018-09-23T20:35:59.841Z,1.60
2018-09-23T20:38:28.144Z,2.20
2018-09-23T20:40:56.339Z,2.10
2018-09-23T20:43:24.520Z,2.10
2018-09-23T20:45:52.740Z,1.40
2018-09-23T20:48:20.916Z,1.10
2018-09-23T20:50:49.151Z,1.65
2018-09-23T20:53:17.384Z,1.10
2018-09-23T20:55:45.585Z,1.52
2018-09-23T20:58:14.292Z,1.47
2018-09-23T21:00:42.461Z,1.30
2018-09-23T21:03:10.732Z,1.67
2018-09-23T21:08:19.229Z,1.70
2018-09-23T21:10:48.779Z,1.12
2018-09-23T21:13:18.008Z,1.30
2018-09-23T21:15:47.323Z,1.70
2018-09-23T21:18:15.608Z,1.42
2018-09-23T21:20:44.785Z,1.20
2018-09-23T21:23:13.234Z,1.55
2018-09-23T21:25:41.473Z,1.40
2018-09-23T21:28:09.622Z,2.40
2018-09-23T21:30:37.848Z,1.45
2018-09-23T21:33:06.123Z,1.52
2018-09-23T21:35:34.333Z,2.37
2018-09-23T21:38:02.538Z,1.40
2018-09-23T21:40:30.756Z,1.70
2018-09-23T21:42:59.025Z,1.72
2018-09-23T21:45:28.360Z,1.12
2018-09-23T21:47:56.532Z,1.77
2018-09-23T21:50:24.736Z,1.77
2018-09-23T21:52:52.878Z,0.95
2018-09-23T21:55:21.055Z,1.02
2018-09-23T21:57:49.201Z,1.30
2018-09-23T22:00:17.385Z,2.17
2018-09-23T22:02:45.561Z,1.22
2018-09-23T22:05:13.720Z,1.47
2018-09-23T22:07:41.917Z,0.88
2018-09-23T22:10:10.117Z,0.80
2018-09-23T22:12:38.427Z,1.65
2018-09-23T22:15:11.150Z,0.90
2018-09-23T22:17:39.423Z,1.50
2018-09-23T22:20:07.694Z,1.40
2018-09-23T22:22:35.866Z,1.40
2018-09-23T22:25:04.071Z,1.10
2018-09-23T22:27:32.258Z,1.65
2018-09-23T22:30:00.551Z,1.25
2018-09-23T22:32:28.685Z,0.90
2018-09-23T22:34:56.875Z,1.40
2018-09-23T22:37:25.130Z,0.90
2018-09-23T22:39:53.757Z,2.02
2018-09-23T22:42:22.025Z,1.60
2018-09-23T22:44:50.285Z,1.20
2018-09-23T22:47:18.541Z,1.45
2018-09-23T22:49:46.800Z,1.32
2018-09-23T22:52:15.036Z,1.20
2018-09-23T22:54:43.231Z,1.20
2018-09-23T22:57:11.400Z,1.20
2018-09-23T22:59:39.695Z,1.35
2018-09-23T23:02:07.879Z,1.10
2018-09-23T23:04:36.049Z,1.27
2018-09-23T23:07:04.225Z,1.20
2018-09-23T23:09:32.489Z,0.88
2018-09-23T23:12:00.617Z,1.37
2018-09-23T23:14:28.782Z,1.37
2018-09-23T23:16:56.991Z,0.90
2018-09-23T23:19:25.202Z,0.68
2018-09-23T23:21:53.417Z,1.30
2018-09-23T23:24:21.604Z,1.25
2018-09-23T23:26:49.851Z,1.00
2018-09-23T23:29:18.399Z,1.55
2018-09-23T23:31:46.838Z,1.50
2018-09-23T23:34:15.043Z,1.22
2018-09-23T23:36:43.195Z,1.75
2018-09-23T23:39:11.682Z,0.90
2018-09-23T23:41:40.087Z,0.90
2018-09-23T23:44:08.392Z,0.98
2018-09-23T23:46:36.955Z,1.12
2018-09-23T23:49:05.232Z,1.37
2018-09-23T23:51:33.385Z,1.17
2018-09-23T23:54:01.760Z,1.00
2018-09-23T23:56:30.143Z,0.90
2018-09-23T23:58:58.372Z,2.05
